KAJG

Mount Carmel Municipal Airport

Mount Carmel, Illinois, USA
METAR KAJG 212135Z AUTO 20008KT 10SM SCT030 BKN035 BKN041 28/23 A2968 RMK AO2 LTG DSNT N AND NW T02760227
Observed Flight Rules
Jun-21 @ 21:35 UTC (30 minutes ago) Visual Flight Rules
Wind Visibility Clouds
200° at 8 knots 10 miles
  • Scattered at 3,000' AGL
  • Broken at 3,500' AGL
  • Broken at 4,100' AGL
Temperatures Readings
Current 28°C / 82°F
Dewpoint 23°C / 73°F
Humidity 74%
Altimeter 29.68" Hg
Pressure 1005 hPa
Elevation 131
METAR KAJG 212135Z AUTO 20008KT 10SM SCT030 BKN035 BKN041 28/23 A2968 RMK AO2 LTG DSNT N AND NW T02760227
Observed Flight Rules
Jun-21 @ 21:35 UTC
(30 minutes ago)
VFR
Wind Visibility
200° at 8 knots 10 miles
Clouds
  • Scattered at 3,000' AGL
  • Broken at 3,500' AGL
  • Broken at 4,100' AGL
Temperature Dewpoint
28°C / 82°F 23°C / 73°F
Humidity Altimeter Pressure
74% 29.68" Hg 1005 hPa